Latest Weather Observations for Avalon

IDV60901

Issued at 7:11 am EST Sunday 24 July 2016 (issued every 10 minutes, with the page automatically refreshed every 10 minutes)

About weather observations | Map of Melbourne area stations | Latest observations for Melbourne area | Other Formats
Station Details ID: 087113 Name: AVALON AIRPORT Lat: -38.03 Lon: 144.48 Height: 10.6 m
Data from the previous 72 hours. | See also: Recent months at Avalon
Date/Time
EST
Temp
°C
App
Temp
°C
Dew
Point
°C
Rel
Hum
%
Delta-T
°C
Wind Press
QNH
hPa
Press
MSL
hPa
Rain since
9am
mm
Dir  Spd
km/h
Gust
km/h
Spd
kts
Gust
kts
24/07:00am 4.7 -0.5 2.6 86 0.9 NNW 19 20 10 11 1010.1 1010.1 1.6
24/06:30am 4.9 -0.2 2.9 87 0.8 NNW 19 24 10 13 1010.0 1010.0 1.6
24/06:00am 4.6 -0.2 2.8 88 0.7 NNW 17 20 9 11 1010.1 1010.1 1.6
24/05:30am 4.0 0.0 3.0 93 0.4 N 13 19 7 10 1010.3 1010.3 1.6
24/05:00am 3.6 -0.1 2.3 91 0.5 NNE 11 15 6 8 1010.8 1010.8 1.6
24/04:30am 3.3 -0.1 2.0 91 0.5 N 9 15 5 8 1011.2 1011.2 1.6
24/04:00am 4.5 -0.7 2.7 88 0.7 NNW 19 20 10 11 1011.5 1011.5 1.6
24/03:30am 4.8 -0.3 2.8 87 0.8 NW 19 22 10 12 1011.7 1011.7 1.6
24/03:00am 2.7 1.1 2.3 97 0.2 CALM 0 6 0 3 1011.9 1011.9 1.6
24/02:30am 3.1 0.4 2.7 97 0.2 N 6 7 3 4 1011.9 1011.9 1.6
24/02:00am 3.1 1.5 2.4 95 0.3 CALM 0 6 0 3 1012.0 1012.0 1.6
24/01:30am 4.1 2.7 3.5 96 0.2 CALM 0 0 0 0 1012.0 1012.0 1.6
24/01:00am 4.7 2.2 4.0 95 0.3 N 6 7 3 4 1012.0 1012.0 1.6
24/12:30am 4.2 2.9 4.1 99 0.0 CALM 0 0 0 0 1012.3 1012.3 1.6
24/12:00am 3.3 1.8 2.9 97 0.2 CALM 0 0 0 0 1012.5 1012.5 1.6
 
Date/Time
EST
Temp
°C
App
Temp
°C
Dew
Point
°C
Rel
Hum
%
Delta-T
°C
Wind Press
QNH
hPa
Press
MSL
hPa
Rain since
9am
mm
Dir  Spd
km/h
Gust
km/h
Spd
kts
Gust
kts
23/11:30pm 4.9 1.5 4.2 95 0.3 NW 11 15 6 8 1012.6 1012.6 1.6
23/11:00pm 5.1 1.4 4.2 94 0.4 WNW 13 15 7 8 1012.8 1012.8 1.6
23/10:30pm 6.3 1.9 4.8 90 0.7 NW 17 26 9 14 1012.8 1012.8 1.6
23/10:00pm 6.2 2.3 5.3 94 0.4 WNW 15 19 8 10 1012.7 1012.7 1.6
23/09:30pm 6.8 1.6 5.7 93 0.5 WNW 22 28 12 15 1012.8 1012.8 1.6
23/09:00pm 6.6 2.0 5.6 93 0.4 WNW 19 24 10 13 1012.9 1012.9 1.4
23/08:30pm 6.7 1.8 5.0 89 0.7 NW 20 26 11 14 1012.4 1012.4 1.4
23/08:00pm 6.5 1.6 5.0 90 0.7 NW 20 28 11 15 1012.0 1012.0 1.4
23/07:30pm 6.2 1.4 4.8 91 0.6 WNW 19 24 10 13 1012.0 1012.0 1.4
23/07:00pm 6.5 0.0 4.8 89 0.7 WNW 28 32 15 17 1011.6 1011.6 1.4
23/06:30pm 7.3 2.5 5.4 88 0.8 WNW 20 26 11 14 1011.1 1011.1 1.4
23/06:00pm 7.3 2.6 6.1 92 0.5 W 20 33 11 18 1010.8 1010.8 1.4
23/05:30pm 6.5 1.7 5.5 93 0.4 W 20 30 11 16 1010.4 1010.4 1.4
23/05:00pm 7.5 0.4 5.5 87 0.9 W 32 43 17 23 1010.2 1010.2 0.8
23/04:30pm 8.0 1.2 4.9 81 1.4 WNW 30 39 16 21 1009.6 1009.6 0.6
23/04:00pm 8.5 1.2 5.3 80 1.4 W 33 43 18 23 1009.1 1009.1 0.6
23/03:30pm 7.7 1.3 5.3 85 1.1 WNW 28 33 15 18 1008.8 1008.8 0.6
23/03:00pm 7.5 0.9 6.0 90 0.7 W 30 43 16 23 1008.3 1008.3 0.4
23/02:33pm 8.2 0.4 5.0 80 1.4 W 35 46 19 25 1007.8 1007.8 0.4
23/02:30pm 8.1 -0.1 4.5 78 1.6 W 37 48 20 26 1007.8 1007.8 0.4
23/02:23pm 7.9 -0.1 5.5 85 1.1 W 37 56 20 30 1007.8 1007.8 0.4
23/02:14pm 9.4 1.8 3.8 68 2.4 W 33 54 18 29 1007.5 1007.5 0.0
23/02:00pm 9.8 2.1 5.2 73 2.1 W 35 46 19 25 1007.3 1007.3 0.0
23/01:31pm 9.0 1.6 5.0 76 1.8 WNW 33 54 18 29 1006.9 1006.9 0.0
23/01:30pm 9.0 1.8 5.0 76 1.8 WNW 32 44 17 24 1006.9 1006.9 0.0
23/01:04pm 8.3 1.2 6.4 88 0.9 W 33 52 18 28 1006.8 1006.8 0.0
23/01:00pm 7.7 -0.3 5.8 88 0.9 W 37 52 20 28 1006.9 1006.9 0.0
23/12:45pm 9.6 1.0 4.4 70 2.3 WNW 39 61 21 33 1006.6 1006.6 0.0
23/12:30pm 9.9 0.9 4.3 68 2.5 WNW 41 52 22 28 1006.4 1006.4 0.0
23/12:11pm 9.6 0.0 4.2 69 2.4 WNW 44 65 24 35 1006.2 1006.2 0.0
23/12:00pm 9.5 0.6 4.9 73 2.1 WNW 41 50 22 27 1006.4 1006.4 0.0
23/11:41am 9.4 0.7 4.2 70 2.3 WNW 39 57 21 31 1006.4 1006.4 0.0
23/11:30am 9.1 1.3 4.7 74 2.0 WNW 35 46 19 25 1006.3 1006.3 0.0
23/11:00am 8.2 0.2 4.0 75 1.8 W 35 48 19 26 1006.6 1006.6 0.0
23/10:30am 8.0 0.2 5.1 82 1.3 W 35 48 19 26 1006.3 1006.3 0.0
23/10:03am 7.8 -0.4 2.9 71 2.1 W 35 59 19 32 1005.7 1005.7 0.0
23/10:00am 8.0 0.4 2.9 70 2.2 W 32 44 17 24 1005.5 1005.5 0.0
23/09:32am 7.8 0.7 3.3 73 1.9 W 30 48 16 26 1005.0 1005.0 0.0
23/09:30am 7.8 0.2 2.9 71 2.1 W 32 48 17 26 1005.0 1005.0 0.0
23/09:17am 7.8 0.1 2.3 68 2.3 WNW 32 50 17 27 1004.6 1004.6 0.0
23/09:00am 7.5 1.0 2.6 71 2.1 WNW 26 32 14 17 1004.3 1004.3 5.2
23/08:30am 6.5 0.8 2.6 76 1.6 W 22 26 12 14 1003.6 1003.6 5.2
23/08:00am 6.6 0.5 2.7 76 1.6 W 24 35 13 19 1003.0 1003.0 5.2
23/07:30am 6.3 1.3 4.8 90 0.7 WNW 20 24 11 13 1002.4 1002.4 5.2
23/07:00am 6.3 1.1 5.7 96 0.3 W 22 30 12 16 1001.5 1001.5 5.2
23/06:30am 7.0 1.2 6.3 95 0.3 W 26 35 14 19 1001.0 1001.0 5.2
23/06:00am 7.0 0.0 5.9 93 0.5 W 32 46 17 25 999.8 999.8 5.0
23/05:30am 7.4 -0.9 6.3 93 0.5 W 39 54 21 29 999.3 999.3 5.0
23/05:00am 7.6 -1.1 5.9 89 0.8 WNW 41 52 22 28 998.1 998.1 4.8
23/04:34am 7.8 0.6 6.1 89 0.8 WNW 33 56 18 30 997.4 997.4 4.8
23/04:30am 7.6 0.1 6.4 92 0.5 WNW 35 46 19 25 997.4 997.4 4.8
23/04:00am 7.6 -0.6 6.4 92 0.6 W 39 54 21 29 996.9 996.9 4.8
23/03:30am 7.7 0.7 6.8 94 0.4 WNW 33 48 18 26 996.4 996.4 4.6
23/03:00am 7.7 -0.7 5.8 88 0.9 W 39 52 21 28 995.7 995.7 4.6
23/02:35am 8.1 -0.7 5.7 85 1.1 W 41 59 22 32 995.2 995.2 4.6
23/02:30am 8.2 -1.1 5.7 84 1.1 W 44 61 24 33 995.0 995.0 4.6
23/02:09am 8.3 -2.4 6.3 87 0.9 W 52 70 28 38 994.0 994.0 4.6
23/02:00am 8.5 -2.6 6.3 86 1.0 WNW 54 69 29 37 993.5 993.5 4.6
23/01:30am 9.0 -3.9 5.7 80 1.5 WNW 63 85 34 46 991.7 991.7 4.6
23/01:24am 9.4 -2.4 5.6 77 1.7 WNW 57 80 31 43 991.7 991.7 4.6
23/01:21am 9.7 -1.6 5.3 74 2.0 NW 54 80 29 43 991.5 991.5 4.6
23/01:01am 9.7 0.4 5.1 73 2.1 NW 43 65 23 35 991.5 991.5 4.6
23/01:00am 9.7 0.8 5.1 73 2.1 NW 41 57 22 31 991.5 991.5 4.6
23/12:30am 9.5 2.0 6.4 81 1.4 NW 35 50 19 27 992.3 992.3 4.6
23/12:00am 9.6 2.4 6.0 78 1.7 NW 33 43 18 23 992.4 992.4 4.6
 
Date/Time
EST
Temp
°C
App
Temp
°C
Dew
Point
°C
Rel
Hum
%
Delta-T
°C
Wind Press
QNH
hPa
Press
MSL
hPa
Rain since
9am
mm
Dir  Spd
km/h
Gust
km/h
Spd
kts
Gust
kts
22/11:30pm 9.6 3.5 6.7 82 1.4 NW 28 39 15 21 992.5 992.5 4.6
22/11:00pm 9.2 4.5 7.6 90 0.8 NW 22 28 12 15 992.9 992.9 4.6
22/10:30pm 9.1 4.1 8.0 93 0.5 NW 24 32 13 17 993.1 993.1 4.6
22/10:00pm 9.6 3.1 8.0 90 0.8 WNW 32 46 17 25 993.9 993.9 4.0
22/09:48pm 9.8 3.0 7.7 87 1.0 WNW 33 52 18 28 993.8 993.8 3.6
22/09:30pm 10.7 5.1 8.6 87 1.0 NW 28 37 15 20 993.6 993.6 3.4
22/09:27pm 10.7 5.1 8.6 87 1.0 NW 28 35 15 19 993.6 993.6 3.4
22/09:00pm 10.0 6.8 8.3 89 0.8 NW 15 17 8 9 993.8 993.8 3.4
22/08:30pm 9.5 5.8 8.1 91 0.7 NW 17 19 9 10 994.1 994.1 3.4
22/08:00pm 9.2 6.3 8.0 92 0.6 NW 13 17 7 9 994.4 994.4 3.4
22/07:30pm 9.8 5.8 8.2 90 0.8 NW 19 24 10 13 994.5 994.5 3.4
22/07:00pm 9.7 6.2 8.8 94 0.4 NNW 17 20 9 11 994.7 994.7 3.4
22/06:30pm 10.1 6.7 9.0 93 0.5 NW 17 20 9 11 994.7 994.7 3.4
22/06:00pm 10.3 6.6 10.0 98 0.2 NW 20 26 11 14 994.7 994.7 3.4
22/05:48pm 10.4 6.2 9.8 96 0.3 NW 22 28 12 15 994.7 994.7 3.4
22/05:30pm 11.0 6.2 10.4 96 0.3 W 26 41 14 22 995.6 995.6 3.0
22/05:29pm 11.0 6.2 10.2 95 0.4 W 26 41 14 22 995.7 995.7 3.0
22/05:00pm 11.8 5.6 9.2 84 1.3 WNW 32 41 17 22 994.4 994.4 1.4
22/04:30pm 11.3 3.8 9.6 89 0.9 WNW 39 50 21 27 994.6 994.6 1.4
22/04:12pm 13.0 6.9 9.6 80 1.7 WNW 32 50 17 27 994.5 994.5 1.4
22/04:00pm 13.5 8.6 11.2 86 1.2 WNW 28 39 15 21 994.1 994.1 1.4
22/03:30pm 13.0 6.4 10.0 82 1.5 WNW 35 46 19 25 994.2 994.2 1.4
22/03:00pm 12.6 6.6 10.1 85 1.3 WNW 32 44 17 24 994.3 994.3 1.4
22/02:30pm 12.6 6.5 9.8 83 1.4 WNW 32 41 17 22 994.7 994.7 1.4
22/02:00pm 11.1 3.7 10.0 93 0.6 WNW 39 52 21 28 994.7 994.7 1.2
22/01:59pm 11.1 3.8 10.2 94 0.5 WNW 39 52 21 28 994.8 994.8 1.2
22/01:36pm 11.0 0.2 9.3 89 0.8 W 56 83 30 45 995.1 995.1 0.2
22/01:30pm 12.6 3.5 8.3 75 2.1 WNW 46 80 25 43 994.8 994.8 0.0
22/01:29pm 12.9 4.3 8.8 76 2.1 WNW 44 65 24 35 994.8 994.8 0.0
22/01:27pm 15.2 7.2 8.9 66 3.2 WNW 41 65 22 35 994.5 994.5 0.0
22/01:00pm 17.5 9.4 10.1 62 4.0 NW 43 57 23 31 993.7 993.7 0.0
22/12:30pm 16.4 8.2 9.6 64 3.5 NW 43 61 23 33 994.1 994.1 0.0
22/12:01pm 16.2 8.7 9.6 65 3.4 NW 39 57 21 31 993.9 993.9 0.0
22/12:00pm 16.2 8.7 9.6 65 3.5 NW 39 52 21 28 994.1 994.1 0.0
22/11:45am 15.9 8.9 9.8 67 3.2 NW 37 59 20 32 994.2 994.2 0.0
22/11:30am 15.9 8.5 9.8 67 3.2 NW 39 54 21 29 994.6 994.6 0.0
22/11:00am 15.3 8.8 10.3 72 2.6 NW 35 50 19 27 995.3 995.3 0.0
22/10:48am 15.3 8.7 10.1 71 2.7 NW 35 54 19 29 995.3 995.3 0.0
22/10:30am 15.2 8.7 10.2 72 2.6 NW 35 50 19 27 995.5 995.5 0.0
22/10:00am 15.1 8.6 10.3 73 2.5 NW 35 50 19 27 995.8 995.8 0.0
22/09:30am 15.2 10.3 11.2 77 2.1 NW 28 39 15 21 996.2 996.2 0.0
22/09:00am 15.2 10.4 11.6 79 2.0 NW 28 39 15 21 995.8 995.8 3.6
22/08:30am 16.2 11.0 11.6 74 2.5 NW 30 43 16 23 996.1 996.1 3.4
22/08:00am 15.8 11.9 12.0 78 2.1 NW 24 30 13 16 996.0 996.0 3.4
22/07:30am 16.3 11.8 12.5 78 2.1 NW 28 37 15 20 996.4 996.4 3.4
22/07:00am 16.4 12.6 13.5 83 1.6 NW 26 39 14 21 996.5 996.5 3.4
22/06:30am 16.1 14.7 15.5 96 0.3 NW 17 22 9 12 996.7 996.7 3.4
22/06:00am 15.6 13.8 15.4 99 0.1 NNW 19 24 10 13 997.1 997.1 3.2
22/05:48am 15.8 13.8 15.6 99 0.1 NW 20 28 11 15 997.1 997.1 3.2
22/05:44am 15.8 13.1 15.6 99 0.1 NW 24 33 13 18 997.1 997.1 3.2
22/05:30am 15.4 10.8 15.2 99 0.1 W 33 56 18 30 997.7 997.7 3.0
22/05:28am 15.7 11.3 15.1 96 0.3 W 32 56 17 30 997.8 997.8 2.0
22/05:25am 15.9 12.6 14.9 94 0.6 W 26 46 14 25 997.9 997.9 1.6
22/05:16am 16.6 12.9 15.1 91 0.9 NW 28 41 15 22 997.7 997.7 0.6
22/05:00am 16.7 11.0 15.1 90 0.9 N 39 57 21 31 997.0 997.0 0.6
22/04:34am 17.3 11.3 14.4 83 1.7 NNW 39 57 21 31 997.0 997.0 0.2
22/04:30am 17.4 11.7 14.3 82 1.8 NNW 37 52 20 28 997.3 997.3 0.2
22/04:17am 17.4 12.4 14.1 81 1.9 N 33 52 18 28 997.6 997.6 0.2
22/04:00am 16.5 12.2 13.2 81 1.9 N 28 39 15 21 998.0 998.0 0.2
22/03:30am 16.5 10.9 13.2 81 1.8 N 35 46 19 25 998.6 998.6 0.2
22/03:00am 16.3 11.0 13.0 81 1.8 N 33 48 18 26 999.6 999.6 0.2
22/02:30am 16.4 11.0 12.9 80 1.9 N 33 46 18 25 1000.7 1000.7 0.2
22/02:02am 16.3 10.4 12.3 77 2.2 N 35 54 19 29 1001.2 1001.2 0.2
22/02:00am 16.3 10.0 12.3 77 2.2 N 37 54 20 29 1001.2 1001.2 0.2
22/01:36am 16.2 9.5 12.2 77 2.2 N 39 57 21 31 1001.7 1001.7 0.2
22/01:30am 16.3 9.2 12.1 76 2.3 N 41 57 22 31 1001.7 1001.7 0.2
22/01:19am 16.1 9.3 12.1 77 2.2 N 39 57 21 31 1001.8 1001.8 0.2
22/01:00am 16.2 8.7 12.0 76 2.3 N 43 59 23 32 1001.7 1001.7 0.2
22/12:46am 16.0 9.2 11.8 76 2.3 N 39 57 21 31 1002.0 1002.0 0.2
22/12:30am 16.1 9.2 11.5 74 2.5 N 39 54 21 29 1002.8 1002.8 0.2
22/12:00am 15.8 10.1 11.2 74 2.5 N 32 43 17 23 1003.6 1003.6 0.2
 
Date/Time
EST
Temp
°C
App
Temp
°C
Dew
Point
°C
Rel
Hum
%
Delta-T
°C
Wind Press
QNH
hPa
Press
MSL
hPa
Rain since
9am
mm
Dir  Spd
km/h
Gust
km/h
Spd
kts
Gust
kts
21/11:30pm 15.3 10.3 10.9 75 2.3 N 28 37 15 20 1004.5 1004.5 0.2
21/11:00pm 15.7 10.0 11.1 74 2.5 N 32 46 17 25 1005.1 1005.1 0.2
21/10:58pm 15.7 10.4 11.1 74 2.5 N 30 43 16 23 1005.2 1005.2 0.2
21/10:30pm 15.2 13.4 10.8 75 2.3 NNE 11 20 6 11 1005.7 1005.7 0.2
21/10:00pm 15.6 11.3 10.8 73 2.6 NNE 24 35 13 19 1005.6 1005.6 0.2
21/09:30pm 15.6 10.3 11.2 75 2.4 NNE 30 39 16 21 1006.3 1006.3 0.2
21/09:16pm 15.4 10.5 11.2 76 2.2 NNE 28 39 15 21 1006.4 1006.4 0.2
21/09:00pm 14.2 11.9 11.9 86 1.2 NNE 15 20 8 11 1006.8 1006.8 0.2
21/08:30pm 13.8 10.2 12.0 89 1.0 NNE 22 26 12 14 1007.6 1007.6 0.2
21/08:00pm 13.7 10.0 11.6 87 1.1 NNE 22 28 12 15 1008.2 1008.2 0.2
21/07:30pm 14.5 10.3 11.1 80 1.8 NNE 24 32 13 17 1008.8 1008.8 0.2
21/07:00pm 14.2 10.8 10.6 79 1.9 NNE 19 24 10 13 1009.1 1009.1 0.2
21/06:30pm 14.4 11.4 10.6 78 2.0 N 17 22 9 12 1009.4 1009.4 0.2
21/06:00pm 15.3 12.7 10.7 74 2.4 NNE 15 19 8 10 1009.7 1009.7 0.2
21/05:30pm 15.6 12.6 10.8 73 2.5 NNE 17 24 9 13 1010.1 1010.1 0.2
21/05:00pm 16.4 15.4 11.1 71 2.8 N 7 11 4 6 1010.4 1010.4 0.2
21/04:30pm 16.6 15.4 11.7 73 2.7 N 9 17 5 9 1010.2 1010.2 0.2
21/04:00pm 17.0 13.8 11.1 68 3.2 NW 19 35 10 19 1010.3 1010.3 0.2
21/03:30pm 17.3 14.5 11.3 68 3.2 NW 17 28 9 15 1010.5 1010.5 0.2
21/03:00pm 18.7 16.9 12.0 65 3.7 NW 13 22 7 12 1010.5 1010.5 0.2
21/02:30pm 18.1 14.2 12.1 68 3.3 NNW 24 33 13 18 1010.8 1010.8 0.2
21/02:00pm 18.5 15.8 13.4 72 2.9 NNW 20 30 11 16 1011.1 1011.1 0.2
21/01:30pm 17.2 13.5 12.7 75 2.5 NNW 24 32 13 17 1011.8 1011.8 0.2
21/01:00pm 17.2 15.2 12.7 75 2.5 N 15 20 8 11 1012.3 1012.3 0.2
21/12:30pm 15.5 14.0 13.2 86 1.3 NE 13 17 7 9 1012.9 1012.9 0.2
21/12:00pm 13.5 12.1 13.3 99 0.1 NE 13 17 7 9 1013.8 1013.8 0.2
21/11:30am 11.1 10.3 11.1 100 0.0 ENE 6 9 3 5 1014.6 1014.6 0.2
21/11:00am 9.9 8.6 9.9 100 0.0 NE 7 11 4 6 1014.9 1014.9 0.2
21/10:30am 9.4 8.2 9.4 100 0.0 ENE 6 7 3 4 1015.4 1015.4 0.0
21/10:00am 8.9 7.3 8.9 100 0.0 E 7 9 4 5 1015.6 1015.6 0.0
21/09:30am 8.5 6.1 8.5 100 0.0 ESE 11 13 6 7 1016.0 1016.0 0.0
21/09:00am 8.3 6.8 8.3 100 0.0 E 6 9 3 5 1016.2 1016.2 0.6
21/08:30am 7.9 5.7 7.9 100 0.0 NE 9 11 5 6 1016.3 1016.3 0.4
21/08:00am 7.3 5.5 7.3 100 0.0 NE 6 9 3 5 1016.5 1016.5 0.4
21/07:30am 7.0 4.2 7.0 100 0.0 NE 11 13 6 7 1016.5 1016.5 0.4

Latest Capital City Observations: Canberra | Sydney | Melbourne | Brisbane | Adelaide | Perth | Hobart | Darwin

Other Formats:

Comma delimited format used in spreadsheet applications
http://www.bom.gov.au/fwo/IDV60901/IDV60901.94854.axf

JavaScript Object Notation format (JSON) in row-major order
http://www.bom.gov.au/fwo/IDV60901/IDV60901.94854.json